UPSVAC Airport Information Service

Cincinnati Northern Kentucky International Airport

ICAO: KCVG Country: United States
Latitude: 39.0488 Longitude: -84.6678
Latest Arrival : AMF20 (KSDF-KCVG) Latest Departure : UPSJUMP (KCVG-KPHL)


WX CaptureLIVE
Data provided by noaa.gov | Fetched at 17:58:34

METAR : KCVG 191652Z 11010KT 10SM FEW030 SCT150 BKN200 BKN250 29/17 A3015 RMK AO2 SLP198 T02890172

TAF : KCVG 191455Z 1915/2018 12005KT P6SM SCT050 BKN250 FM200000 12005KT P6SM BKN250 FM200300 16004KT P6SM BKN120 FM200900 14004KT P6SM VCSH SCT050 OVC090 FM201400 16008KT P6SM VCSH BKN035 OVC050


Runway Data for KCVG
Data provided by openaviationdata.com

Runway ID Mag Var Hdg Length Elevation Surface ILS Freq ILS Id ILS Slope
9 -4 94° 11984 ft 896 ft Asphalt 111.9 IURN 3
18L -4 184° 10010 ft 896 ft Concrete 110.15 ICIZ 3
18R -4 184° 11010 ft 896 ft Asphalt 111.55 ISIC 3
27 -4 274° 11984 ft 896 ft Asphalt 108.7 IJDP 3
36L -4 11010 ft 896 ft Asphalt 109.9 ICVG 3
36R -4 10010 ft 896 ft Concrete 110.35 IEEI 3

Cincinnati Northern Kentucky International Airport, United States
Use only for reference purposes



Not for navigational purposes.